Time;durP1;ratioP1;P1;durP2;ratioP2;P2;SDS_P1;SDS_P2;PMS_P1;PMS_P2;Temp;Humidity;BMP_temperature;BMP_pressure;BME280_temperature;BME280_humidity;BME280_pressure;Samples;Min_cycle;Max_cycle;Signal;HPM_P1;HPM_P2
2023/12/09 00:02:17;;;;;;;107.60;32.85;;;8.10;99.90;;;;;;5088534;28;20047;-83
2023/12/09 00:04:43;;;;;;;105.50;32.75;;;7.60;99.90;;;;;;5089930;28;20460;-74
2023/12/09 00:07:08;;;;;;;121.10;34.03;;;7.50;99.90;;;;;;5089285;28;20479;-75
2023/12/09 00:09:34;;;;;;;119.50;33.47;;;7.70;99.90;;;;;;5089174;28;20085;-74
2023/12/09 00:12:00;;;;;;;122.85;31.73;;;7.60;99.90;;;;;;5089923;28;20082;-84
2023/12/09 00:14:25;;;;;;;111.47;32.75;;;7.40;99.90;;;;;;5089616;28;20570;-78
2023/12/09 00:16:51;;;;;;;98.18;31.33;;;7.40;99.90;;;;;;5089386;28;20040;-80
2023/12/09 00:19:16;;;;;;;116.50;31.55;;;7.50;99.90;;;;;;5089803;28;20047;-74
2023/12/09 00:21:42;;;;;;;117.45;32.60;;;7.60;99.90;;;;;;5089111;28;20483;-79
2023/12/09 00:24:08;;;;;;;97.45;31.70;;;7.90;99.90;;;;;;5089293;28;20040;-75
2023/12/09 00:26:33;;;;;;;98.72;29.55;;;7.50;99.90;;;;;;5087680;28;20236;-83
2023/12/09 00:28:59;;;;;;;103.95;31.35;;;7.40;99.90;;;;;;5087776;28;20056;-77
2023/12/09 00:31:25;;;;;;;115.50;32.13;;;7.50;99.90;;;;;;5089736;28;20056;-75
2023/12/09 00:33:50;;;;;;;100.32;29.60;;;7.50;99.90;;;;;;5089386;28;20051;-76
2023/12/09 00:36:16;;;;;;;111.90;31.33;;;7.60;99.90;;;;;;5088095;28;20044;-79
2023/12/09 00:38:42;;;;;;;99.53;30.63;;;7.40;99.90;;;;;;5088408;28;20082;-75
2023/12/09 00:41:07;;;;;;;104.85;31.73;;;8.00;99.90;;;;;;5089091;28;20044;-79
2023/12/09 00:43:33;;;;;;;96.20;29.42;;;7.50;99.90;;;;;;5089563;28;20044;-76
2023/12/09 00:45:58;;;;;;;121.70;30.90;;;7.40;99.90;;;;;;5089076;28;20044;-75
2023/12/09 00:48:24;;;;;;;88.70;30.13;;;7.50;99.90;;;;;;5089329;28;20069;-77
2023/12/09 00:50:49;;;;;;;101.22;30.13;;;7.40;99.90;;;;;;5089475;28;20040;-81
2023/12/09 00:53:15;;;;;;;99.57;29.58;;;7.50;99.90;;;;;;5089386;28;20047;-76
2023/12/09 00:55:41;;;;;;;96.65;28.88;;;7.80;99.90;;;;;;5089140;28;20552;-78
2023/12/09 00:58:06;;;;;;;102.32;29.13;;;7.60;99.90;;;;;;5088775;28;20051;-76
2023/12/09 01:00:32;;;;;;;99.00;30.10;;;7.50;99.90;;;;;;5079603;28;20044;-77
2023/12/09 01:02:57;;;;;;;82.75;27.70;;;7.50;99.90;;;;;;5089439;28;20040;-75
2023/12/09 01:05:23;;;;;;;112.22;30.55;;;7.50;99.90;;;;;;5089292;28;20033;-76
2023/12/09 01:07:49;;;;;;;94.20;30.10;;;7.60;99.90;;;;;;5087453;28;20051;-76
2023/12/09 01:10:14;;;;;;;95.35;25.95;;;7.50;99.90;;;;;;5089503;28;20149;-74
2023/12/09 01:12:40;;;;;;;91.75;28.15;;;7.60;99.90;;;;;;5088773;28;20419;-81
2023/12/09 01:15:06;;;;;;;82.13;28.25;;;7.60;99.90;;;;;;5088948;28;20048;-73
2023/12/09 01:17:31;;;;;;;89.13;27.52;;;7.50;99.90;;;;;;5089570;28;20051;-75
2023/12/09 01:19:57;;;;;;;95.72;28.58;;;7.40;99.90;;;;;;5089203;28;20398;-77
2023/12/09 01:22:23;;;;;;;81.63;28.50;;;7.50;99.90;;;;;;5087924;28;20044;-80
2023/12/09 01:24:49;;;;;;;95.22;27.92;;;7.60;99.90;;;;;;5089028;28;20040;-75
2023/12/09 01:27:14;;;;;;;78.80;26.42;;;7.60;99.90;;;;;;5089244;28;20489;-76
2023/12/09 01:29:40;;;;;;;87.38;28.42;;;7.60;99.90;;;;;;5089041;28;20055;-76
2023/12/09 01:32:06;;;;;;;83.95;26.13;;;7.60;99.90;;;;;;5089374;28;20047;-78
2023/12/09 01:34:31;;;;;;;89.10;27.27;;;7.60;99.90;;;;;;5090657;28;20113;-74
2023/12/09 01:36:57;;;;;;;88.10;27.42;;;7.60;99.90;;;;;;5092282;28;20524;-76
2023/12/09 01:39:22;;;;;;;81.70;27.20;;;7.50;99.90;;;;;;5091276;28;20127;-83
2023/12/09 01:41:48;;;;;;;84.00;26.05;;;7.60;99.90;;;;;;5091402;28;20128;-83
2023/12/09 01:44:13;;;;;;;81.03;26.00;;;7.40;99.90;;;;;;5091974;28;20077;-83
2023/12/09 01:46:40;;;;;;;85.78;25.05;;;7.60;99.90;;;;;;5092267;28;20040;-81
2023/12/09 01:49:06;;;;;;;69.00;24.83;;;7.60;99.90;;;;;;5092431;28;20044;-78
2023/12/09 01:51:35;;;;;;;67.63;23.10;;;7.50;99.90;;;;;;5092621;28;20040;-74
2023/12/09 01:54:01;;;;;;;66.93;22.88;;;7.60;99.90;;;;;;5092534;28;20065;-76
2023/12/09 01:56:26;;;;;;;70.53;23.65;;;7.60;99.90;;;;;;5091805;28;20116;-74
2023/12/09 01:58:53;;;;;;;82.55;23.67;;;7.60;99.90;;;;;;5092233;28;20465;-83
2023/12/09 02:01:19;;;;;;;64.28;23.52;;;7.70;99.90;;;;;;5091736;28;20040;-74
2023/12/09 02:03:45;;;;;;;61.88;22.60;;;7.70;99.90;;;;;;5092497;28;20093;-76
2023/12/09 02:06:10;;;;;;;75.78;23.55;;;7.70;99.90;;;;;;5092180;28;20047;-82
2023/12/09 02:08:38;;;;;;;62.00;21.48;;;7.70;99.90;;;;;;5091680;28;20048;-78
2023/12/09 02:11:15;;;;;;;64.60;22.73;;;7.60;99.90;;;;;;5092048;28;20097;-74
2023/12/09 02:13:56;;;;;;;71.50;22.08;;;7.60;99.90;;;;;;5092042;28;20101;-80
2023/12/09 02:17:07;;;;;;;64.93;23.15;;;7.70;99.90;;;;;;5091664;28;20040;-75
2023/12/09 02:19:33;;;;;;;70.90;22.10;;;7.50;99.90;;;;;;5085870;28;20165;-78
2023/12/09 02:22:03;;;;;;;61.15;23.60;;;7.70;99.90;;;;;;5091610;28;20071;-76
2023/12/09 02:24:29;;;;;;;68.18;22.50;;;7.80;99.90;;;;;;5091740;28;20048;-74
2023/12/09 02:27:14;;;;;;;63.88;22.58;;;8.10;99.90;;;;;;5091743;28;20380;-74
2023/12/09 02:29:53;;;;;;;70.47;22.83;;;7.70;99.90;;;;;;5089556;28;20040;-76
2023/12/09 02:32:23;;;;;;;72.43;24.52;;;8.00;99.90;;;;;;5090709;28;20048;-80
2023/12/09 02:34:51;;;;;;;71.97;23.98;;;7.50;99.90;;;;;;5091359;28;20555;-79
2023/12/09 02:37:17;;;;;;;73.32;23.33;;;7.50;99.90;;;;;;5091417;28;20590;-76
2023/12/09 02:39:43;;;;;;;69.80;23.08;;;7.60;99.90;;;;;;5091231;28;20624;-76
2023/12/09 02:42:09;;;;;;;68.97;24.50;;;7.50;99.90;;;;;;5090120;28;20083;-81
2023/12/09 02:44:36;;;;;;;70.88;22.60;;;7.90;99.90;;;;;;5091186;28;20486;-74
2023/12/09 02:47:01;;;;;;;71.82;21.23;;;7.50;99.90;;;;;;5091096;28;20046;-76
2023/12/09 02:49:27;;;;;;;74.18;23.17;;;7.50;99.90;;;;;;5091189;28;20040;-79
2023/12/09 02:51:52;;;;;;;79.95;22.10;;;7.80;99.90;;;;;;5091516;28;20043;-76
2023/12/09 02:54:18;;;;;;;62.22;22.75;;;7.60;99.90;;;;;;5091689;28;20128;-75
2023/12/09 02:56:44;;;;;;;74.70;21.75;;;7.80;99.90;;;;;;5091796;28;20048;-74
2023/12/09 02:59:09;;;;;;;75.30;22.15;;;7.60;99.90;;;;;;5091649;28;20044;-75
2023/12/09 03:01:35;;;;;;;66.82;20.23;;;8.00;99.90;;;;;;5091853;28;20067;-75
2023/12/09 03:04:01;;;;;;;73.53;21.80;;;8.00;99.90;;;;;;5091502;28;20135;-75
2023/12/09 03:06:27;;;;;;;60.58;20.42;;;7.70;99.90;;;;;;5091336;28;20048;-74
2023/12/09 03:08:52;;;;;;;71.80;20.63;;;7.90;99.90;;;;;;5091433;28;20548;-74
2023/12/09 03:11:18;;;;;;;64.78;21.20;;;7.60;99.90;;;;;;5090536;28;20044;-76
2023/12/09 03:13:44;;;;;;;58.60;19.95;;;8.00;99.90;;;;;;5089645;28;20059;-76
2023/12/09 03:16:09;;;;;;;55.35;19.65;;;7.90;99.90;;;;;;5089354;28;20048;-74
2023/12/09 03:18:35;;;;;;;60.20;20.38;;;7.70;99.90;;;;;;5088880;28;20040;-75
2023/12/09 03:21:00;;;;;;;57.35;19.52;;;8.00;99.90;;;;;;5090849;28;20399;-75
2023/12/09 03:23:26;;;;;;;57.65;19.60;;;7.50;99.90;;;;;;5090642;28;20040;-74
2023/12/09 03:25:52;;;;;;;55.30;19.00;;;7.60;99.90;;;;;;5090825;28;20044;-75
2023/12/09 03:28:17;;;;;;;50.33;19.17;;;8.10;99.90;;;;;;5090261;28;20473;-80
2023/12/09 03:30:43;;;;;;;67.47;20.20;;;7.60;99.90;;;;;;5090398;28;20051;-77
2023/12/09 03:33:09;;;;;;;48.28;17.90;;;7.60;99.90;;;;;;5089140;28;20070;-80
2023/12/09 03:35:34;;;;;;;49.72;17.75;;;7.50;99.90;;;;;;5089830;28;20044;-75
2023/12/09 03:38:00;;;;;;;51.58;18.88;;;8.20;99.90;;;;;;5090452;28;20109;-77
2023/12/09 03:40:25;;;;;;;54.88;18.95;;;7.50;99.90;;;;;;5090346;28;20044;-77
2023/12/09 03:42:51;;;;;;;69.57;19.52;;;7.50;99.90;;;;;;5090281;28;20047;-79
2023/12/09 03:45:17;;;;;;;60.03;19.38;;;7.40;99.90;;;;;;5089069;28;20075;-75
2023/12/09 03:47:42;;;;;;;56.80;18.95;;;7.50;99.90;;;;;;5090021;28;20403;-76
2023/12/09 03:50:08;;;;;;;44.47;18.08;;;7.40;99.90;;;;;;5090053;28;20032;-79
2023/12/09 03:52:34;;;;;;;47.53;18.42;;;7.40;99.90;;;;;;5089164;28;20040;-75
2023/12/09 03:54:59;;;;;;;59.85;20.00;;;7.50;99.90;;;;;;5089004;28;20055;-76
2023/12/09 03:57:25;;;;;;;54.33;18.90;;;7.40;99.90;;;;;;5089394;28;20498;-75
2023/12/09 03:59:51;;;;;;;52.67;19.05;;;7.50;99.90;;;;;;5088704;28;20075;-74
2023/12/09 04:02:18;;;;;;;57.85;18.83;;;7.50;99.90;;;;;;5086997;28;20131;-76
2023/12/09 04:04:44;;;;;;;54.63;20.02;;;7.40;99.90;;;;;;5089803;28;20039;-78
2023/12/09 04:07:09;;;;;;;60.55;20.73;;;7.80;99.90;;;;;;5089213;28;20446;-77
2023/12/09 04:09:35;;;;;;;56.60;18.95;;;7.30;99.90;;;;;;5088672;28;20044;-76
2023/12/09 04:12:00;;;;;;;51.30;17.67;;;7.40;99.90;;;;;;5089859;28;20075;-79
2023/12/09 04:14:26;;;;;;;44.58;19.60;;;7.30;99.90;;;;;;5088528;28;20050;-73
2023/12/09 04:16:52;;;;;;;49.42;19.80;;;7.50;99.90;;;;;;5087970;28;20496;-79
2023/12/09 04:19:17;;;;;;;58.20;19.08;;;7.50;99.90;;;;;;5089618;28;20058;-77
2023/12/09 04:21:43;;;;;;;58.88;17.52;;;7.40;99.90;;;;;;5087526;28;20498;-76
2023/12/09 04:24:08;;;;;;;63.30;18.92;;;7.30;99.90;;;;;;5089372;28;20044;-78
2023/12/09 04:26:34;;;;;;;55.88;18.33;;;7.40;99.90;;;;;;5089090;28;20044;-72
2023/12/09 04:29:00;;;;;;;55.55;18.88;;;7.30;99.90;;;;;;5083662;28;20222;-79
2023/12/09 04:31:26;;;;;;;56.33;17.63;;;7.30;99.90;;;;;;5089023;28;20509;-75
2023/12/09 04:33:51;;;;;;;62.95;19.15;;;7.30;99.90;;;;;;5089339;28;20052;-76
2023/12/09 04:36:17;;;;;;;50.17;16.45;;;7.40;99.90;;;;;;5089079;28;20448;-79
2023/12/09 04:38:43;;;;;;;53.80;16.92;;;7.40;99.90;;;;;;5088003;28;20495;-75
2023/12/09 04:41:08;;;;;;;52.67;16.52;;;7.80;99.90;;;;;;5088943;28;20051;-82
2023/12/09 04:43:34;;;;;;;46.90;16.55;;;7.40;99.90;;;;;;5089327;28;20131;-74
2023/12/09 04:46:00;;;;;;;50.75;17.85;;;7.40;99.90;;;;;;5088877;28;20040;-75
2023/12/09 04:48:25;;;;;;;39.78;15.70;;;7.40;99.90;;;;;;5089322;28;20048;-73
2023/12/09 04:50:51;;;;;;;51.80;17.52;;;7.40;99.90;;;;;;5089052;28;20090;-77
2023/12/09 04:53:17;;;;;;;50.03;17.15;;;7.70;99.90;;;;;;5088797;28;20055;-75
2023/12/09 04:55:42;;;;;;;53.15;16.88;;;7.30;99.90;;;;;;5087822;28;20127;-77
2023/12/09 04:58:08;;;;;;;50.65;17.15;;;7.70;99.90;;;;;;5089055;28;20368;-79
2023/12/09 05:00:33;;;;;;;47.17;15.38;;;7.30;99.90;;;;;;5089181;28;20051;-74
2023/12/09 05:02:59;;;;;;;53.22;17.58;;;7.30;99.90;;;;;;5089071;28;20085;-80
2023/12/09 05:05:25;;;;;;;51.65;15.95;;;7.70;99.90;;;;;;5089189;28;20065;-77
2023/12/09 05:07:51;;;;;;;54.25;15.63;;;7.40;99.90;;;;;;5090408;28;20056;-80
2023/12/09 05:10:17;;;;;;;57.22;15.60;;;7.40;99.90;;;;;;5091314;28;20066;-73
2023/12/09 05:12:42;;;;;;;56.72;15.77;;;7.30;99.90;;;;;;5090424;28;20040;-74
2023/12/09 05:15:08;;;;;;;44.60;13.45;;;7.40;99.90;;;;;;5092701;28;20040;-75
2023/12/09 05:17:34;;;;;;;52.53;15.65;;;7.30;99.90;;;;;;5091623;28;20102;-78
2023/12/09 05:20:00;;;;;;;50.92;15.05;;;7.40;99.90;;;;;;5092794;28;20044;-78
2023/12/09 05:22:25;;;;;;;47.80;15.55;;;7.40;99.90;;;;;;5091189;28;20048;-75
2023/12/09 05:24:51;;;;;;;45.42;14.73;;;7.50;99.90;;;;;;5092212;28;20044;-76
2023/12/09 05:27:17;;;;;;;54.50;15.50;;;7.70;99.90;;;;;;5092831;28;20055;-80
2023/12/09 05:29:43;;;;;;;54.60;15.65;;;7.40;99.90;;;;;;5092159;28;20040;-74
2023/12/09 05:32:09;;;;;;;53.92;15.57;;;7.40;99.90;;;;;;5091742;28;20047;-73
2023/12/09 05:34:35;;;;;;;56.78;15.65;;;7.40;99.90;;;;;;5092491;28;20452;-76
2023/12/09 05:37:00;;;;;;;52.90;14.95;;;7.80;99.90;;;;;;5092390;28;20048;-81
2023/12/09 05:39:26;;;;;;;50.85;14.93;;;7.30;99.90;;;;;;5092023;28;20081;-76
2023/12/09 05:41:51;;;;;;;44.38;15.10;;;7.40;99.90;;;;;;5091717;28;20036;-82
2023/12/09 05:44:17;;;;;;;38.35;13.77;;;7.40;99.90;;;;;;5091958;28;20399;-76
2023/12/09 05:46:43;;;;;;;48.78;15.38;;;7.50;99.90;;;;;;5090808;28;20047;-80
2023/12/09 05:49:09;;;;;;;48.05;14.38;;;7.40;99.90;;;;;;5092184;28;20461;-83
2023/12/09 05:51:35;;;;;;;47.30;14.25;;;7.40;99.90;;;;;;5092363;28;20044;-79
2023/12/09 05:54:01;;;;;;;49.03;13.38;;;7.40;99.90;;;;;;5091845;28;20411;-75
2023/12/09 05:56:27;;;;;;;51.30;16.10;;;7.50;99.90;;;;;;5091738;28;20044;-76
2023/12/09 05:58:52;;;;;;;57.30;14.40;;;7.40;99.90;;;;;;5091915;28;20044;-74
2023/12/09 06:01:18;;;;;;;49.60;13.73;;;7.80;99.90;;;;;;5091616;28;20048;-75
2023/12/09 06:03:44;;;;;;;48.42;14.18;;;7.40;99.90;;;;;;5092040;28;20036;-82
2023/12/09 06:06:10;;;;;;;41.90;13.82;;;7.40;99.90;;;;;;5090239;28;20537;-84
2023/12/09 06:08:35;;;;;;;51.00;13.98;;;7.40;99.90;;;;;;5092127;28;20048;-79
2023/12/09 06:11:01;;;;;;;40.55;13.32;;;7.70;99.90;;;;;;5092126;28;20111;-75
2023/12/09 06:13:27;;;;;;;47.72;14.52;;;7.60;99.90;;;;;;5083363;28;20048;-76
2023/12/09 06:15:52;;;;;;;35.33;13.05;;;7.80;99.90;;;;;;5091857;28;20039;-75
2023/12/09 06:18:18;;;;;;;57.85;13.75;;;7.30;99.90;;;;;;5091835;28;20040;-75
2023/12/09 06:20:44;;;;;;;49.33;12.63;;;7.80;99.90;;;;;;5091220;28;20040;-81
2023/12/09 06:23:10;;;;;;;47.70;14.13;;;7.30;99.90;;;;;;5091605;28;20036;-79
2023/12/09 06:25:36;;;;;;;42.13;13.98;;;7.40;99.90;;;;;;5091549;28;20082;-75
2023/12/09 06:28:01;;;;;;;51.97;12.63;;;7.30;99.90;;;;;;5089909;28;20059;-74
2023/12/09 06:30:27;;;;;;;43.80;12.02;;;7.30;99.90;;;;;;5091766;28;20040;-78
2023/12/09 06:32:53;;;;;;;39.80;12.57;;;7.30;99.90;;;;;;5091580;28;20115;-75
2023/12/09 06:35:18;;;;;;;37.80;12.30;;;7.30;99.90;;;;;;5091876;28;20039;-76
2023/12/09 06:37:44;;;;;;;40.92;12.48;;;7.30;99.90;;;;;;5089845;28;20058;-76
2023/12/09 06:40:10;;;;;;;42.72;12.80;;;7.40;99.90;;;;;;5091145;28;20387;-77
2023/12/09 06:42:37;;;;;;;39.05;12.23;;;7.30;99.90;;;;;;5090067;28;20059;-75
2023/12/09 06:45:03;;;;;;;43.50;12.85;;;7.20;99.90;;;;;;5091261;28;20039;-76
2023/12/09 06:47:28;;;;;;;47.45;13.05;;;7.30;99.90;;;;;;5090994;28;20616;-77
2023/12/09 06:49:54;;;;;;;39.72;12.68;;;7.20;99.90;;;;;;5091034;28;20513;-78
2023/12/09 06:52:20;;;;;;;40.20;11.75;;;7.30;99.90;;;;;;5090826;28;20071;-79
2023/12/09 06:54:45;;;;;;;39.28;11.63;;;7.20;99.90;;;;;;5090876;28;20036;-76
2023/12/09 06:57:11;;;;;;;33.13;11.48;;;7.30;99.90;;;;;;5090641;28;20084;-82
2023/12/09 06:59:36;;;;;;;38.33;10.75;;;7.20;99.90;;;;;;5090951;28;20040;-75
2023/12/09 07:02:02;;;;;;;43.63;12.00;;;7.20;99.90;;;;;;5090439;28;20054;-75
2023/12/09 07:04:28;;;;;;;34.90;11.15;;;7.20;99.90;;;;;;5090978;28;20406;-76
2023/12/09 07:06:59;;;;;;;40.03;12.70;;;7.20;99.90;;;;;;5089593;28;20135;-82
2023/12/09 07:09:25;;;;;;;35.85;10.82;;;7.10;99.90;;;;;;5089337;28;20048;-82
2023/12/09 07:11:51;;;;;;;43.88;11.70;;;7.20;99.90;;;;;;5090648;28;20040;-81
2023/12/09 07:14:16;;;;;;;38.42;11.88;;;7.10;99.90;;;;;;5090607;28;20040;-75
2023/12/09 07:16:42;;;;;;;38.65;11.20;;;7.10;99.90;;;;;;5090776;28;20043;-81
2023/12/09 07:19:08;;;;;;;36.67;11.05;;;7.10;99.90;;;;;;5090568;28;20120;-75
2023/12/09 07:21:34;;;;;;;34.00;11.15;;;7.10;99.90;;;;;;5090575;28;20054;-75
2023/12/09 07:23:59;;;;;;;35.42;11.57;;;7.10;99.90;;;;;;5089255;28;20052;-76
2023/12/09 07:26:25;;;;;;;38.28;11.43;;;7.00;99.90;;;;;;5090426;28;20039;-75
2023/12/09 07:28:50;;;;;;;33.05;11.10;;;7.50;99.90;;;;;;5090484;28;20044;-75
2023/12/09 07:31:17;;;;;;;32.10;11.10;;;7.00;99.90;;;;;;5088998;28;20138;-74
2023/12/09 07:33:43;;;;;;;40.15;10.90;;;7.00;99.90;;;;;;5090225;28;20066;-75
2023/12/09 07:36:09;;;;;;;35.20;10.63;;;7.30;99.90;;;;;;5090585;28;20044;-75
2023/12/09 07:38:34;;;;;;;32.67;10.23;;;6.90;99.90;;;;;;5090522;28;20051;-76
2023/12/09 07:41:01;;;;;;;36.22;10.52;;;7.40;99.90;;;;;;5089943;28;20121;-79
2023/12/09 07:43:27;;;;;;;41.08;10.95;;;7.00;99.90;;;;;;5090024;28;20050;-79
2023/12/09 07:45:52;;;;;;;33.22;10.65;;;6.90;99.90;;;;;;5088401;28;20052;-73
2023/12/09 07:48:18;;;;;;;34.28;10.23;;;7.20;99.90;;;;;;5090150;28;20079;-80
2023/12/09 07:50:44;;;;;;;32.92;9.40;;;7.00;99.90;;;;;;5089900;28;20028;-78
2023/12/09 07:53:09;;;;;;;33.05;9.55;;;7.00;99.90;;;;;;5090413;28;20040;-82
2023/12/09 07:55:35;;;;;;;35.80;9.77;;;7.10;99.90;;;;;;5090270;28;20486;-78
2023/12/09 07:58:00;;;;;;;35.35;9.73;;;6.90;99.90;;;;;;5089823;28;20048;-78
2023/12/09 08:00:27;;;;;;;39.03;10.35;;;6.90;99.90;;;;;;5089874;28;20055;-78
2023/12/09 08:02:54;;;;;;;34.65;10.25;;;6.90;99.90;;;;;;5089418;28;20487;-74
2023/12/09 08:05:21;;;;;;;35.95;9.95;;;7.00;99.90;;;;;;5085526;28;20028;-84
2023/12/09 08:07:47;;;;;;;39.65;11.18;;;7.00;99.90;;;;;;5089691;28;20545;-74
2023/12/09 08:10:13;;;;;;;33.63;10.02;;;7.00;99.90;;;;;;5089794;28;20048;-75
2023/12/09 08:12:38;;;;;;;32.67;9.40;;;6.90;99.90;;;;;;5088325;28;20494;-75
2023/12/09 08:15:04;;;;;;;37.40;10.27;;;6.90;99.90;;;;;;5089450;28;20075;-77
2023/12/09 08:17:30;;;;;;;40.50;10.48;;;6.90;99.90;;;;;;5089574;28;20063;-83
2023/12/09 08:19:56;;;;;;;33.90;9.35;;;6.90;99.90;;;;;;5089921;28;20074;-83
2023/12/09 08:22:21;;;;;;;39.80;9.85;;;6.90;99.90;;;;;;5089474;28;20101;-74
2023/12/09 08:24:47;;;;;;;36.53;10.05;;;6.90;99.90;;;;;;5089834;28;20036;-79
2023/12/09 08:27:12;;;;;;;38.55;10.48;;;6.90;99.90;;;;;;5089832;28;20088;-76
2023/12/09 08:29:38;;;;;;;35.78;9.65;;;6.90;99.90;;;;;;5089644;28;20123;-75
2023/12/09 08:32:05;;;;;;;29.23;10.23;;;6.90;99.90;;;;;;5089941;28;20106;-80
2023/12/09 08:34:30;;;;;;;41.25;10.30;;;7.00;99.90;;;;;;5088947;28;20048;-83
2023/12/09 08:36:56;;;;;;;24.58;9.32;;;6.90;99.90;;;;;;5089795;28;20080;-75
2023/12/09 08:39:23;;;;;;;39.15;9.68;;;6.90;99.90;;;;;;5089814;28;20044;-78
2023/12/09 08:41:49;;;;;;;38.90;9.98;;;6.90;99.90;;;;;;5089577;28;20047;-80
2023/12/09 08:44:14;;;;;;;35.10;9.32;;;6.90;99.90;;;;;;5093232;28;20043;-78
2023/12/09 08:46:40;;;;;;;35.38;8.60;;;6.80;99.90;;;;;;5092642;28;20048;-76
2023/12/09 08:49:06;;;;;;;35.20;9.50;;;6.90;99.90;;;;;;5093702;28;20061;-76
2023/12/09 08:51:43;;;;;;;30.42;9.13;;;6.80;99.90;;;;;;5093755;28;20964;-86
2023/12/09 08:54:09;;;;;;;24.80;8.55;;;6.90;99.90;;;;;;5089875;28;20127;-74
2023/12/09 08:56:35;;;;;;;28.42;8.35;;;6.80;99.90;;;;;;5093561;28;20162;-76
2023/12/09 08:59:00;;;;;;;30.70;8.55;;;6.90;99.90;;;;;;5093373;28;20153;-83
2023/12/09 09:01:26;;;;;;;31.35;8.35;;;6.90;99.90;;;;;;5093542;28;20438;-76
2023/12/09 09:03:52;;;;;;;38.55;9.35;;;6.60;99.90;;;;;;5093667;28;20426;-74
2023/12/09 09:06:17;;;;;;;31.40;8.48;;;7.40;99.90;;;;;;5092740;28;20036;-80
2023/12/09 09:08:43;;;;;;;33.30;7.68;;;7.10;99.90;;;;;;5093393;28;20052;-76
2023/12/09 09:11:11;;;;;;;33.28;8.40;;;7.20;99.90;;;;;;5093301;28;20397;-81
2023/12/09 09:13:38;;;;;;;29.52;7.45;;;7.00;99.90;;;;;;5092828;28;20076;-75
2023/12/09 09:16:04;;;;;;;30.52;7.72;;;6.90;99.90;;;;;;5093566;28;20051;-75
2023/12/09 09:18:29;;;;;;;31.52;8.50;;;6.90;99.90;;;;;;5093184;28;20048;-75
2023/12/09 09:20:55;;;;;;;34.53;7.57;;;6.90;99.90;;;;;;5092102;28;20048;-79
2023/12/09 09:23:21;;;;;;;32.50;7.45;;;7.00;99.90;;;;;;5093475;28;20040;-72
2023/12/09 09:25:46;;;;;;;28.30;6.82;;;7.00;99.90;;;;;;5092900;28;20372;-77
2023/12/09 09:28:12;;;;;;;31.38;7.07;;;7.10;99.90;;;;;;5093310;28;20043;-74
2023/12/09 09:30:37;;;;;;;34.83;7.57;;;7.00;99.90;;;;;;5092934;28;20054;-79
2023/12/09 09:33:03;;;;;;;28.40;7.18;;;7.20;99.90;;;;;;5092891;28;20036;-74
2023/12/09 09:35:29;;;;;;;33.00;7.13;;;7.00;99.90;;;;;;5092642;28;20133;-75
2023/12/09 09:37:54;;;;;;;21.67;5.90;;;7.00;99.90;;;;;;5092149;28;20067;-76
2023/12/09 09:40:20;;;;;;;28.30;6.57;;;7.00;99.90;;;;;;5091280;28;20063;-79
2023/12/09 09:42:56;;;;;;;22.83;5.63;;;7.00;99.90;;;;;;5092422;28;20044;-75
2023/12/09 09:45:24;;;;;;;28.80;5.43;;;7.00;99.90;;;;;;5092473;28;20131;-80
2023/12/09 09:47:51;;;;;;;26.27;6.50;;;7.40;99.90;;;;;;5092451;28;20519;-81
2023/12/09 09:50:23;;;;;;;24.15;6.15;;;7.10;99.90;;;;;;5090211;28;20399;-80
2023/12/09 09:52:50;;;;;;;21.75;5.80;;;7.10;99.90;;;;;;5087967;28;20566;-76
2023/12/09 09:55:20;;;;;;;19.10;5.35;;;7.20;99.90;;;;;;5091320;28;20094;-73
2023/12/09 09:57:48;;;;;;;22.02;5.63;;;7.10;99.90;;;;;;5092191;28;20040;-76
2023/12/09 10:00:15;;;;;;;31.73;5.68;;;7.10;99.90;;;;;;5084746;28;20048;-81
2023/12/09 10:02:43;;;;;;;28.98;5.32;;;7.10;99.90;;;;;;5090925;28;21020;-75
2023/12/09 10:05:10;;;;;;;27.65;5.43;;;7.10;99.90;;;;;;5092162;28;20127;-77
2023/12/09 10:07:39;;;;;;;20.02;5.18;;;7.10;99.90;;;;;;5085028;28;20514;-76
2023/12/09 10:10:06;;;;;;;20.50;5.10;;;7.00;99.90;;;;;;5091895;28;20492;-74
2023/12/09 10:12:32;;;;;;;20.27;4.70;;;7.10;99.90;;;;;;5090760;28;20483;-76
2023/12/09 10:15:01;;;;;;;24.95;4.90;;;7.10;99.90;;;;;;5091956;28;20526;-75
2023/12/09 10:17:27;;;;;;;28.83;5.28;;;7.00;99.90;;;;;;5090358;28;20074;-76
2023/12/09 10:19:55;;;;;;;23.02;6.18;;;7.10;99.90;;;;;;5091626;28;20040;-74
2023/12/09 10:22:21;;;;;;;22.55;4.78;;;7.10;99.90;;;;;;5091682;28;20086;-82
2023/12/09 10:24:51;;;;;;;23.15;5.13;;;7.60;99.90;;;;;;5091137;28;20044;-76
2023/12/09 10:27:19;;;;;;;22.50;5.43;;;7.10;99.90;;;;;;5091678;28;20516;-80
2023/12/09 10:29:45;;;;;;;23.35;4.40;;;7.10;99.90;;;;;;5083518;28;20177;-79
2023/12/09 10:32:12;;;;;;;20.20;5.30;;;7.20;99.90;;;;;;5091914;28;20066;-81
2023/12/09 10:34:39;;;;;;;16.60;4.63;;;7.20;99.90;;;;;;5091694;28;20060;-76
2023/12/09 10:37:07;;;;;;;19.52;4.03;;;7.20;99.90;;;;;;5091707;28;20044;-80
2023/12/09 10:39:34;;;;;;;20.73;4.85;;;7.20;99.90;;;;;;5091368;28;20076;-75
2023/12/09 10:41:59;;;;;;;23.00;4.28;;;7.20;99.90;;;;;;5090240;28;20048;-78
2023/12/09 10:44:25;;;;;;;18.70;4.15;;;7.20;99.90;;;;;;5090366;28;20085;-76
2023/12/09 10:46:51;;;;;;;23.02;4.18;;;7.20;99.90;;;;;;5089880;28;20517;-83
2023/12/09 10:49:17;;;;;;;21.30;4.28;;;7.30;99.90;;;;;;5091137;28;20379;-81
2023/12/09 10:51:44;;;;;;;16.30;3.83;;;7.30;99.90;;;;;;5090096;28;20109;-75
2023/12/09 10:54:09;;;;;;;16.85;3.78;;;7.70;99.90;;;;;;5091307;28;20121;-79
2023/12/09 10:56:35;;;;;;;19.50;3.72;;;7.30;99.90;;;;;;5090798;28;20040;-77
2023/12/09 10:59:02;;;;;;;18.52;3.60;;;7.40;99.90;;;;;;5091361;28;20044;-82
2023/12/09 11:01:29;;;;;;;15.77;4.10;;;7.40;99.90;;;;;;5089860;28;20105;-79
2023/12/09 11:03:56;;;;;;;15.63;3.53;;;7.40;99.90;;;;;;5091105;28;20127;-76
2023/12/09 11:06:23;;;;;;;15.35;3.83;;;7.40;99.90;;;;;;5090354;28;20039;-82
2023/12/09 11:08:50;;;;;;;24.60;3.40;;;7.50;99.90;;;;;;5091094;28;20059;-78
2023/12/09 11:11:16;;;;;;;18.17;3.25;;;7.50;99.90;;;;;;5090311;28;20123;-73
2023/12/09 11:13:46;;;;;;;16.10;4.10;;;7.50;99.90;;;;;;5091141;28;20120;-74
2023/12/09 11:16:19;;;;;;;14.98;3.78;;;7.40;99.90;;;;;;5089777;28;20048;-81
2023/12/09 11:18:48;;;;;;;19.33;3.22;;;7.50;99.90;;;;;;5090737;28;20071;-75
2023/12/09 11:21:18;;;;;;;17.33;4.32;;;7.40;99.90;;;;;;5090817;28;20411;-81
2023/12/09 11:23:48;;;;;;;18.13;3.05;;;8.00;99.90;;;;;;5090720;28;20071;-76
2023/12/09 11:26:16;;;;;;;9.65;2.78;;;7.40;99.90;;;;;;5090066;28;20036;-75
2023/12/09 11:29:08;;;;;;;15.23;3.55;;;7.40;99.90;;;;;;5090722;28;20403;-84
2023/12/09 11:31:36;;;;;;;15.43;2.85;;;7.50;99.90;;;;;;5087636;28;20062;-76
2023/12/09 11:34:11;;;;;;;17.80;3.30;;;8.30;99.90;;;;;;5090435;28;20079;-77
2023/12/09 11:36:38;;;;;;;15.90;2.95;;;7.50;99.90;;;;;;5089984;28;20047;-75
2023/12/09 11:39:10;;;;;;;13.57;2.70;;;7.50;99.90;;;;;;5090326;28;20043;-76
2023/12/09 11:41:37;;;;;;;15.02;3.13;;;7.60;99.90;;;;;;5090313;28;20043;-78
2023/12/09 11:44:04;;;;;;;14.45;3.70;;;7.50;99.90;;;;;;5088707;28;20052;-81
2023/12/09 11:46:35;;;;;;;15.15;3.20;;;7.50;99.90;;;;;;5090132;28;20039;-75
2023/12/09 11:49:02;;;;;;;19.30;2.90;;;7.50;99.90;;;;;;5089500;28;20483;-79
2023/12/09 11:51:29;;;;;;;9.80;2.80;;;7.50;99.90;;;;;;5090297;28;20044;-75
2023/12/09 11:53:56;;;;;;;13.65;3.00;;;7.60;99.90;;;;;;5089878;28;20131;-76
2023/12/09 11:56:22;;;;;;;18.23;3.40;;;7.50;99.90;;;;;;5088723;28;20055;-76
2023/12/09 11:58:48;;;;;;;15.05;3.10;;;7.90;99.90;;;;;;5089255;28;20056;-76
2023/12/09 12:01:15;;;;;;;17.13;3.47;;;7.50;99.90;;;;;;5089857;28;20042;-76
2023/12/09 12:03:40;;;;;;;16.05;2.70;;;7.50;99.90;;;;;;5090073;28;20043;-74
2023/12/09 12:06:06;;;;;;;13.02;2.90;;;8.00;99.90;;;;;;5088372;28;20036;-75
2023/12/09 12:08:33;;;;;;;15.35;2.85;;;7.50;99.90;;;;;;5088555;28;20044;-74
2023/12/09 12:10:59;;;;;;;14.90;3.40;;;7.50;99.90;;;;;;5088102;28;20044;-75
2023/12/09 12:13:25;;;;;;;12.27;3.10;;;7.50;99.90;;;;;;5089494;28;20052;-76
2023/12/09 12:15:52;;;;;;;15.95;3.38;;;7.50;99.90;;;;;;5089919;28;20040;-76
2023/12/09 12:18:18;;;;;;;13.15;3.47;;;7.50;99.90;;;;;;5089126;28;20097;-75
2023/12/09 12:20:44;;;;;;;15.45;3.20;;;7.50;99.90;;;;;;5089604;28;20048;-75
2023/12/09 12:23:11;;;;;;;15.57;2.88;;;7.60;99.90;;;;;;5089439;28;20056;-75
2023/12/09 12:25:37;;;;;;;13.35;2.92;;;7.60;99.90;;;;;;5089655;28;20048;-75
2023/12/09 12:28:04;;;;;;;11.93;2.50;;;7.60;99.90;;;;;;5088451;28;20051;-75
2023/12/09 12:30:31;;;;;;;15.32;2.67;;;7.60;99.90;;;;;;5088854;28;20372;-75
2023/12/09 12:32:56;;;;;;;11.68;2.90;;;7.60;99.90;;;;;;5089612;28;20044;-74
2023/12/09 12:35:26;;;;;;;16.35;3.28;;;7.60;99.90;;;;;;5089467;28;20514;-76
2023/12/09 12:37:51;;;;;;;18.10;3.22;;;7.60;99.90;;;;;;5081305;28;20044;-74